Time;durP1;ratioP1;P1;durP2;ratioP2;P2;SDS_P1;SDS_P2;PMS_P1;PMS_P2;Temp;Humidity;BMP_temperature;BMP_pressure;BME280_temperature;BME280_humidity;BME280_pressure;Samples;Min_cycle;Max_cycle;Signal;HPM_P1;HPM_P2
2022/06/29 00:08:27;;;;;;;5.38;1.25;;;;;;;20.50;80.29;100192.06;20823086;28;20069;-68
2022/06/29 00:18:29;;;;;;;4.43;1.17;;;;;;;20.24;86.05;100182.97;20822999;28;20050;-68
2022/06/29 00:28:31;;;;;;;3.95;1.20;;;;;;;20.09;88.76;100173.22;20822819;28;20461;-68
2022/06/29 00:38:32;;;;;;;4.13;1.40;;;;;;;19.97;89.79;100172.13;20821998;28;20099;-68
2022/06/29 00:48:35;;;;;;;3.75;1.20;;;;;;;20.00;87.55;100174.63;20821773;28;20502;-69
2022/06/29 00:58:38;;;;;;;4.63;1.42;;;;;;;19.93;87.42;100152.00;20821088;28;20535;-68
2022/06/29 01:08:40;;;;;;;3.00;1.30;;;;;;;19.90;88.64;100149.53;20818957;28;20052;-69
2022/06/29 01:18:42;;;;;;;5.38;1.98;;;;;;;19.96;91.79;100146.50;20819034;28;20498;-69
2022/06/29 01:28:46;;;;;;;4.32;1.40;;;;;;;19.97;83.45;100154.38;20818705;28;20045;-69
2022/06/29 01:38:47;;;;;;;2.58;1.10;;;;;;;19.96;84.62;100136.72;20820363;28;20136;-68
2022/06/29 01:48:49;;;;;;;2.50;1.25;;;;;;;19.84;87.53;100141.94;20834752;28;20041;-68
2022/06/29 01:58:50;;;;;;;4.90;1.38;;;;;;;19.81;88.12;100134.13;20832994;28;20060;-68
2022/06/29 02:08:52;;;;;;;5.53;1.35;;;;;;;19.83;88.80;100124.25;20832730;28;20045;-68
2022/06/29 02:18:53;;;;;;;5.15;1.30;;;;;;;19.80;87.37;100120.00;20832319;28;20116;-68
2022/06/29 02:28:55;;;;;;;4.78;1.40;;;;;;;19.90;79.10;100122.97;20831763;28;20053;-68
2022/06/29 02:38:57;;;;;;;3.45;1.40;;;;;;;19.92;80.36;100123.72;20829948;28;20629;-68
2022/06/29 02:48:58;;;;;;;6.00;1.35;;;;;;;19.96;88.46;100114.63;20830221;28;20041;-68
2022/06/29 02:59:00;;;;;;;5.03;1.52;;;;;;;19.82;84.00;100125.19;20828543;28;20046;-67
2022/06/29 03:09:02;;;;;;;2.90;1.40;;;;;;;19.77;88.23;100125.47;20827700;28;20049;-67
2022/06/29 03:19:04;;;;;;;3.28;1.40;;;;;;;19.67;90.64;100119.84;20827290;28;20108;-68
2022/06/29 03:29:05;;;;;;;4.85;1.40;;;;;;;19.68;88.46;100107.41;20828246;28;20064;-68
2022/06/29 03:39:07;;;;;;;4.00;1.65;;;;;;;19.66;80.64;100111.97;20825701;28;20041;-69
2022/06/29 03:49:08;;;;;;;5.35;1.45;;;;;;;19.63;82.98;100109.47;20825487;28;20045;-68
2022/06/29 03:59:10;;;;;;;4.78;1.38;;;;;;;19.56;79.83;100116.06;20823642;28;20658;-68
2022/06/29 04:09:11;;;;;;;7.22;1.88;;;;;;;19.60;80.31;100104.34;20822370;28;20095;-69
2022/06/29 04:19:13;;;;;;;6.30;1.40;;;;;;;19.60;82.44;100112.34;20919464;22;20387;-72
2022/06/29 04:29:14;;;;;;;4.55;1.60;;;;;;;19.58;84.17;100103.53;20832550;28;20490;-73
2022/06/29 04:39:16;;;;;;;3.83;1.50;;;;;;;19.60;85.46;100102.56;20828682;28;20119;-71
2022/06/29 04:49:17;;;;;;;5.85;1.77;;;;;;;19.75;84.70;100108.78;20828514;28;20468;-71
2022/06/29 04:59:19;;;;;;;3.45;1.50;;;;;;;19.87;82.26;100104.53;20829955;28;20060;-70
2022/06/29 05:09:23;;;;;;;5.80;1.80;;;;;;;20.17;81.00;100120.44;20827945;28;20045;-70
2022/06/29 05:19:25;;;;;;;5.95;1.67;;;;;;;20.65;76.45;100114.00;20823022;28;20425;-73
2022/06/29 05:29:26;;;;;;;3.25;1.40;;;;;;;21.21;71.38;100117.53;20820218;28;20046;-73
2022/06/29 05:39:28;;;;;;;4.22;1.48;;;;;;;21.45;64.29;100103.59;20818696;28;20088;-72
2022/06/29 05:49:30;;;;;;;3.47;1.50;;;;;;;22.05;59.89;100097.81;20819665;28;20054;-72
2022/06/29 05:59:31;;;;;;;8.20;1.80;;;;;;;22.11;64.91;100108.09;20817021;28;20596;-72
2022/06/29 06:09:33;;;;;;;5.25;1.75;;;;;;;22.36;58.74;100106.41;20817163;28;20072;-76
2022/06/29 06:19:34;;;;;;;4.65;1.83;;;;;;;22.61;57.13;100097.53;20821383;28;20053;-68
2022/06/29 06:29:36;;;;;;;8.07;1.90;;;;;;;22.59;56.56;100097.66;20831354;28;20053;-69
2022/06/29 06:39:37;;;;;;;4.72;1.55;;;;;;;22.35;59.72;100107.38;20836482;28;20050;-70
2022/06/29 06:49:39;;;;;;;5.93;2.10;;;;;;;22.50;63.71;100109.81;20839313;28;20391;-70
2022/06/29 06:59:40;;;;;;;5.28;1.90;;;;;;;22.60;61.48;100115.34;20886801;28;20405;-68
2022/06/29 07:09:42;;;;;;;3.38;1.55;;;;;;;23.05;61.67;100110.44;20861390;28;20045;-73
2022/06/29 07:19:43;;;;;;;4.13;1.60;;;;;;;23.36;64.91;100113.53;20866782;28;21367;-68
2022/06/29 07:29:52;;;;;;;4.30;1.70;;;;;;;23.91;62.88;100112.13;20845704;28;20052;-69
2022/06/29 07:39:53;;;;;;;6.13;1.80;;;;;;;23.81;64.30;100109.25;20871904;28;20049;-69
2022/06/29 07:50:13;;;;;;;5.72;1.80;;;;;;;23.68;62.10;100105.84;20906146;28;20465;-71
2022/06/29 08:00:15;;;;;;;5.13;1.88;;;;;;;24.33;60.01;100089.22;20903682;28;20140;-70
2022/06/29 08:10:17;;;;;;;3.33;1.65;;;;;;;25.05;61.65;100092.41;20899519;28;20136;-70
2022/06/29 08:20:20;;;;;;;3.15;1.58;;;;;;;25.52;58.86;100089.53;20808843;28;20061;-71
2022/06/29 08:30:21;;;;;;;4.40;2.00;;;;;;;25.31;58.85;100097.53;20816281;28;20045;-70
2022/06/29 08:40:25;;;;;;;6.65;1.83;;;;;;;25.04;58.13;100105.94;20819003;28;20050;-70
2022/06/29 08:50:27;;;;;;;;;;;;;;;25.21;61.63;100107.28;20816925;28;20045;-73
2022/06/29 09:00:29;;;;;;;4.68;2.05;;;;;;;25.05;65.52;100102.28;20814833;28;19932;-73
2022/06/29 09:10:31;;;;;;;3.55;2.00;;;;;;;25.12;66.99;100108.88;20825803;28;20395;-69
2022/06/29 09:20:41;;;;;;;5.23;2.00;;;;;;;25.43;67.60;100101.84;20898310;28;20045;-70
2022/06/29 09:30:47;;;;;;;8.10;2.45;;;;;;;25.72;68.55;100087.84;20896587;28;20045;-70
2022/06/29 09:41:01;;;;;;;6.57;2.40;;;;;;;26.44;64.83;100097.88;20843211;28;20462;-70
2022/06/29 10:22:21;;;;;;;5.93;2.95;;;;;;;26.13;66.82;100081.72;20826437;23;20045;-77
2022/06/29 10:32:23;;;;;;;5.80;2.55;;;;;;;26.05;61.16;100078.81;20820633;28;20108;-77
2022/06/29 10:52:45;;;;;;;4.53;2.05;;;;;;;27.28;55.25;100060.88;20823788;28;20050;-77
2022/06/29 11:02:47;;;;;;;6.90;2.30;;;;;;;27.85;52.99;100065.44;20806812;28;20065;-77
2022/06/29 11:12:50;;;;;;;5.63;2.30;;;;;;;27.77;52.84;100056.38;20853829;28;20048;-77
2022/06/29 11:22:52;;;;;;;5.72;2.00;;;;;;;28.71;51.13;100051.91;20914177;28;20052;-77
2022/06/29 11:32:54;;;;;;;5.40;2.80;;;;;;;27.61;54.68;100046.16;20850140;28;20100;-76
2022/06/29 11:43:25;;;;;;;5.68;3.25;;;;;;;26.37;62.97;100032.25;20824285;28;20049;-76
2022/06/29 11:53:47;;;;;;;8.15;3.10;;;;;;;26.59;59.05;100034.78;20797134;28;20049;-77
2022/06/29 12:03:51;;;;;;;5.30;2.85;;;;;;;27.08;57.54;100019.69;20819518;28;20053;-76
2022/06/29 12:13:53;;;;;;;5.03;3.00;;;;;;;26.46;60.52;100020.75;20856690;28;20110;-77
2022/06/29 12:23:55;;;;;;;5.82;3.17;;;;;;;27.76;56.12;100017.03;20882073;28;20049;-77
2022/06/29 12:33:56;;;;;;;5.70;2.42;;;;;;;28.13;52.70;100011.69;20901933;28;20055;-77
2022/06/29 12:44:18;;;;;;;5.18;3.30;;;;;;;26.91;56.67;100005.03;20814282;28;20056;-76
2022/06/29 12:54:20;;;;;;;4.22;2.70;;;;;;;27.44;59.78;100002.00;20798905;28;20406;-76
2022/06/29 13:04:23;;;;;;;4.50;3.00;;;;;;;27.04;54.91;99988.66;20797101;28;20049;-76
2022/06/29 13:14:25;;;;;;;5.32;2.60;;;;;;;27.39;57.99;99979.22;20855090;28;20049;-76
2022/06/29 13:24:27;;;;;;;4.32;2.40;;;;;;;27.48;60.47;99986.44;20892706;28;20080;-77
2022/06/29 13:34:30;;;;;;;5.75;2.80;;;;;;;27.22;57.82;99970.88;20812887;28;20144;-76
2022/06/29 13:44:32;;;;;;;5.70;2.97;;;;;;;27.78;57.84;99961.22;20840837;28;20045;-76
2022/06/29 13:54:35;;;;;;;5.60;2.60;;;;;;;27.86;60.34;99954.13;20840439;28;20053;-76
2022/06/29 14:04:36;;;;;;;3.70;2.53;;;;;;;28.47;55.51;99949.25;20837685;28;20049;-77
2022/06/29 14:14:38;;;;;;;4.00;2.35;;;;;;;28.35;56.58;99951.25;20882008;28;20115;-76
2022/06/29 14:24:39;;;;;;;3.75;2.13;;;;;;;28.36;54.86;99945.75;20900905;28;20048;-76
2022/06/29 14:34:41;;;;;;;3.55;2.20;;;;;;;28.19;57.04;99933.03;20888273;22;20045;-74
2022/06/29 14:44:42;;;;;;;4.20;2.30;;;;;;;28.74;56.84;99919.56;20831044;28;20057;-73
2022/06/29 14:54:45;;;;;;;5.38;2.28;;;;;;;29.01;55.92;99915.97;20820712;28;20103;-72
2022/06/29 15:04:47;;;;;;;4.63;2.80;;;;;;;29.06;51.40;99915.53;20819107;28;20382;-71
2022/06/29 15:14:48;;;;;;;3.67;2.00;;;;;;;28.89;50.45;99898.34;20865305;28;20069;-73
2022/06/29 15:24:50;;;;;;;5.00;2.20;;;;;;;28.86;49.35;99899.47;20903139;28;20048;-72
2022/06/29 15:45:11;;;;;;;4.93;2.17;;;;;;;29.02;49.72;99879.09;20900102;28;20053;-72
2022/06/29 16:05:33;;;;;;;6.60;2.05;;;;;;;28.88;48.09;99846.25;20898375;28;20094;-73
2022/06/29 16:15:34;;;;;;;4.53;2.17;;;;;;;29.03;46.84;99829.56;20848237;28;20041;-73
2022/06/29 16:25:36;;;;;;;6.45;2.17;;;;;;;29.38;48.50;99824.09;20815531;28;20079;-72
2022/06/29 16:35:37;;;;;;;4.22;1.95;;;;;;;29.42;46.93;99821.94;20813659;28;20472;-73
2022/06/29 16:45:39;;;;;;;6.53;2.20;;;;;;;29.68;43.74;99821.94;20813494;28;20129;-75
2022/06/29 16:55:41;;;;;;;5.22;2.10;;;;;;;29.75;43.98;99814.91;20813756;28;20045;-75
2022/06/29 17:05:43;;;;;;;6.43;2.00;;;;;;;29.52;43.45;99808.34;20811850;28;20042;-78
2022/06/29 17:15:44;;;;;;;5.97;2.17;;;;;;;29.46;45.35;99809.78;20865410;28;20049;-77
2022/06/29 17:25:46;;;;;;;4.60;2.00;;;;;;;29.35;44.15;99807.38;20894610;28;20053;-78
2022/06/29 17:35:48;;;;;;;5.13;2.20;;;;;;;29.30;43.10;99794.38;20893135;28;20056;-77
2022/06/29 17:45:54;;;;;;;7.05;2.65;;;;;;;29.43;42.85;99793.09;20893487;28;20477;-77
2022/06/29 17:55:55;;;;;;;4.15;2.00;;;;;;;29.02;44.32;99792.84;20893231;28;20053;-76
2022/06/29 18:05:57;;;;;;;3.22;1.75;;;;;;;28.84;44.00;99793.69;20892034;28;20132;-76
2022/06/29 18:15:58;;;;;;;4.68;1.92;;;;;;;28.69;47.29;99797.94;20837848;28;20053;-76
2022/06/29 18:26:00;;;;;;;5.05;2.10;;;;;;;28.51;48.13;99799.81;20817948;28;20153;-76
2022/06/29 18:36:05;;;;;;;4.90;2.08;;;;;;;28.25;49.21;99805.06;20823118;28;20099;-75
2022/06/29 18:46:06;;;;;;;5.28;2.10;;;;;;;27.94;53.33;99802.69;20820497;28;20410;-75
2022/06/29 18:56:08;;;;;;;5.60;2.53;;;;;;;27.14;61.48;99806.78;20821543;28;20045;-75
2022/06/29 19:06:09;;;;;;;6.20;2.35;;;;;;;26.51;65.97;99817.97;20820355;28;20060;-76
2022/06/29 19:16:11;;;;;;;4.47;2.30;;;;;;;26.00;71.30;99812.75;20876695;28;20037;-75
2022/06/29 19:26:12;;;;;;;5.35;2.55;;;;;;;25.54;75.55;99814.13;20900209;28;20095;-74
2022/06/29 19:36:14;;;;;;;5.45;2.70;;;;;;;25.15;80.41;99829.13;20899391;28;20049;-76
2022/06/29 19:46:16;;;;;;;4.47;2.90;;;;;;;24.72;81.80;99832.72;20900165;28;20061;-76
2022/06/29 19:56:17;;;;;;;5.35;2.53;;;;;;;24.41;87.22;99848.66;20898696;28;20054;-76
2022/06/29 20:06:19;;;;;;;7.22;3.10;;;;;;;24.18;90.87;99855.84;20897164;28;20415;-75
2022/06/29 20:16:20;;;;;;;7.68;2.88;;;;;;;23.92;92.75;99871.34;20840423;28;20053;-75
2022/06/29 20:26:24;;;;;;;6.63;3.13;;;;;;;23.58;92.87;99873.13;20814385;28;20457;-77
2022/06/29 20:36:25;;;;;;;6.90;3.33;;;;;;;23.45;93.30;99875.88;20812081;28;20072;-75
2022/06/29 20:46:27;;;;;;;6.30;3.53;;;;;;;23.24;94.84;99891.75;20804105;28;20053;-75
2022/06/29 20:56:28;;;;;;;5.97;3.13;;;;;;;22.94;97.13;99888.72;20811218;28;20449;-74
2022/06/29 21:06:33;;;;;;;5.13;3.20;;;;;;;22.69;97.64;99895.84;20810980;28;20099;-74
2022/06/29 21:16:35;;;;;;;6.15;3.25;;;;;;;22.41;99.78;99901.50;20869977;28;20507;-74
2022/06/29 21:26:36;;;;;;;6.45;3.20;;;;;;;22.08;100.00;99908.28;20891907;28;20506;-75
2022/06/29 21:36:38;;;;;;;5.53;3.67;;;;;;;22.00;100.00;99913.31;20890403;28;20416;-74
2022/06/29 21:46:40;;;;;;;5.43;3.28;;;;;;;21.94;100.00;99908.41;20893205;28;20056;-74
2022/06/29 21:56:41;;;;;;;6.53;3.60;;;;;;;21.77;100.00;99910.47;20897755;28;20538;-75
2022/06/29 22:06:43;;;;;;;5.45;3.53;;;;;;;21.61;100.00;99912.50;20841829;28;20054;-74
2022/06/29 22:16:44;;;;;;;6.20;3.80;;;;;;;21.51;100.00;99911.41;20751449;28;20136;-74
2022/06/29 22:26:46;;;;;;;9.43;4.28;;;;;;;21.20;100.00;99916.13;20845129;23;20387;-74
2022/06/29 22:36:47;;;;;;;5.93;3.85;;;;;;;20.95;100.00;99916.06;20783321;28;20046;-72
2022/06/29 22:46:50;;;;;;;7.40;4.47;;;;;;;20.71;100.00;99910.56;20764130;28;20107;-72
2022/06/29 22:56:51;;;;;;;7.20;4.32;;;;;;;20.63;100.00;99913.72;20829994;28;20041;-72
2022/06/29 23:06:53;;;;;;;6.72;4.20;;;;;;;20.59;100.00;99932.63;20828543;28;20421;-72
2022/06/29 23:16:54;;;;;;;7.85;4.57;;;;;;;20.39;100.00;99933.88;20828431;28;20108;-71
2022/06/29 23:26:56;;;;;;;7.75;4.20;;;;;;;20.19;100.00;99933.34;20827234;28;20490;-71
2022/06/29 23:36:58;;;;;;;9.60;4.45;;;;;;;20.11;100.00;99938.28;20826742;28;20045;-71
2022/06/29 23:46:59;;;;;;;7.53;4.00;;;;;;;20.07;100.00;99935.91;20827207;28;20060;-71
2022/06/29 23:57:01;;;;;;;7.53;4.13;;;;;;;19.86;100.00;99922.16;20824826;28;20064;-70
